sensor_id;sensor_type;location;lat;lon;timestamp;P1;durP1;ratioP1;P2;durP2;ratioP2
44486;SDS011;30191;50.908;6.962;2024-01-25T00:00:16;53.03;;;8.13;;
44486;SDS011;30191;50.908;6.962;2024-01-25T00:02:42;49.20;;;7.68;;
44486;SDS011;30191;50.908;6.962;2024-01-25T00:05:08;51.35;;;7.93;;
44486;SDS011;30191;50.908;6.962;2024-01-25T00:07:33;46.63;;;8.50;;
44486;SDS011;30191;50.908;6.962;2024-01-25T00:09:59;53.47;;;8.88;;
44486;SDS011;30191;50.908;6.962;2024-01-25T00:12:25;47.20;;;8.45;;
44486;SDS011;30191;50.908;6.962;2024-01-25T00:14:51;46.47;;;8.63;;
44486;SDS011;30191;50.908;6.962;2024-01-25T00:17:17;43.08;;;7.38;;
44486;SDS011;30191;50.908;6.962;2024-01-25T00:19:43;53.63;;;8.82;;
44486;SDS011;30191;50.908;6.962;2024-01-25T00:22:09;55.90;;;8.50;;
44486;SDS011;30191;50.908;6.962;2024-01-25T00:24:34;48.33;;;8.52;;
44486;SDS011;30191;50.908;6.962;2024-01-25T00:27:01;38.47;;;7.22;;
44486;SDS011;30191;50.908;6.962;2024-01-25T00:29:27;43.85;;;7.82;;
44486;SDS011;30191;50.908;6.962;2024-01-25T00:31:55;51.00;;;8.02;;
44486;SDS011;30191;50.908;6.962;2024-01-25T00:34:21;44.38;;;8.45;;
44486;SDS011;30191;50.908;6.962;2024-01-25T00:36:47;55.78;;;8.93;;
44486;SDS011;30191;50.908;6.962;2024-01-25T00:39:13;48.92;;;8.02;;
44486;SDS011;30191;50.908;6.962;2024-01-25T00:41:39;39.10;;;7.43;;
44486;SDS011;30191;50.908;6.962;2024-01-25T00:44:08;42.25;;;8.32;;
44486;SDS011;30191;50.908;6.962;2024-01-25T00:46:35;48.67;;;8.45;;
44486;SDS011;30191;50.908;6.962;2024-01-25T00:49:00;46.03;;;7.93;;
44486;SDS011;30191;50.908;6.962;2024-01-25T00:51:26;57.08;;;7.80;;
44486;SDS011;30191;50.908;6.962;2024-01-25T00:53:52;45.53;;;7.82;;
44486;SDS011;30191;50.908;6.962;2024-01-25T00:56:18;51.13;;;7.90;;
44486;SDS011;30191;50.908;6.962;2024-01-25T00:58:44;38.03;;;7.35;;
44486;SDS011;30191;50.908;6.962;2024-01-25T01:01:10;41.97;;;8.02;;
44486;SDS011;30191;50.908;6.962;2024-01-25T01:03:36;49.83;;;8.45;;
44486;SDS011;30191;50.908;6.962;2024-01-25T01:06:02;54.20;;;8.63;;
44486;SDS011;30191;50.908;6.962;2024-01-25T01:08:28;48.33;;;7.57;;
44486;SDS011;30191;50.908;6.962;2024-01-25T01:10:54;47.55;;;7.32;;
44486;SDS011;30191;50.908;6.962;2024-01-25T01:13:19;38.03;;;7.28;;
44486;SDS011;30191;50.908;6.962;2024-01-25T01:15:45;44.45;;;8.35;;
44486;SDS011;30191;50.908;6.962;2024-01-25T01:18:10;40.13;;;7.80;;
44486;SDS011;30191;50.908;6.962;2024-01-25T01:20:36;42.70;;;7.45;;
44486;SDS011;30191;50.908;6.962;2024-01-25T01:23:02;50.90;;;7.88;;
44486;SDS011;30191;50.908;6.962;2024-01-25T01:25:27;41.78;;;7.40;;
44486;SDS011;30191;50.908;6.962;2024-01-25T01:27:53;45.92;;;7.15;;
44486;SDS011;30191;50.908;6.962;2024-01-25T01:30:19;49.28;;;7.82;;
44486;SDS011;30191;50.908;6.962;2024-01-25T01:32:45;46.97;;;8.10;;
44486;SDS011;30191;50.908;6.962;2024-01-25T01:35:11;39.75;;;6.72;;
44486;SDS011;30191;50.908;6.962;2024-01-25T01:37:36;53.83;;;8.63;;
44486;SDS011;30191;50.908;6.962;2024-01-25T01:40:02;50.08;;;8.25;;
44486;SDS011;30191;50.908;6.962;2024-01-25T01:42:28;42.58;;;7.07;;
44486;SDS011;30191;50.908;6.962;2024-01-25T01:44:54;45.72;;;6.75;;
44486;SDS011;30191;50.908;6.962;2024-01-25T01:47:19;38.88;;;7.68;;
44486;SDS011;30191;50.908;6.962;2024-01-25T01:49:45;47.75;;;7.85;;
44486;SDS011;30191;50.908;6.962;2024-01-25T01:52:11;44.67;;;7.53;;
44486;SDS011;30191;50.908;6.962;2024-01-25T01:54:37;48.45;;;7.90;;
44486;SDS011;30191;50.908;6.962;2024-01-25T01:57:03;45.72;;;7.25;;
44486;SDS011;30191;50.908;6.962;2024-01-25T01:59:29;43.40;;;6.93;;
44486;SDS011;30191;50.908;6.962;2024-01-25T02:01:56;43.03;;;6.78;;
44486;SDS011;30191;50.908;6.962;2024-01-25T02:04:21;41.42;;;7.20;;
44486;SDS011;30191;50.908;6.962;2024-01-25T02:06:47;46.63;;;7.88;;
44486;SDS011;30191;50.908;6.962;2024-01-25T02:09:13;42.35;;;7.88;;
44486;SDS011;30191;50.908;6.962;2024-01-25T02:11:38;46.15;;;7.20;;
44486;SDS011;30191;50.908;6.962;2024-01-25T02:14:04;47.63;;;7.32;;
44486;SDS011;30191;50.908;6.962;2024-01-25T02:16:31;42.42;;;7.43;;
44486;SDS011;30191;50.908;6.962;2024-01-25T02:18:56;43.50;;;7.10;;
44486;SDS011;30191;50.908;6.962;2024-01-25T02:21:22;44.40;;;6.88;;
44486;SDS011;30191;50.908;6.962;2024-01-25T02:23:49;49.63;;;7.10;;
44486;SDS011;30191;50.908;6.962;2024-01-25T02:26:15;50.38;;;8.02;;
44486;SDS011;30191;50.908;6.962;2024-01-25T02:28:41;45.50;;;7.88;;
44486;SDS011;30191;50.908;6.962;2024-01-25T02:31:06;48.15;;;7.28;;
44486;SDS011;30191;50.908;6.962;2024-01-25T02:33:32;44.45;;;7.15;;
44486;SDS011;30191;50.908;6.962;2024-01-25T02:35:57;47.20;;;8.15;;
44486;SDS011;30191;50.908;6.962;2024-01-25T02:38:23;37.58;;;7.53;;
44486;SDS011;30191;50.908;6.962;2024-01-25T02:40:49;43.33;;;7.75;;
44486;SDS011;30191;50.908;6.962;2024-01-25T02:43:14;46.72;;;7.05;;
44486;SDS011;30191;50.908;6.962;2024-01-25T02:45:40;53.35;;;9.23;;
44486;SDS011;30191;50.908;6.962;2024-01-25T02:48:06;47.00;;;8.88;;
44486;SDS011;30191;50.908;6.962;2024-01-25T02:50:31;44.67;;;7.07;;
44486;SDS011;30191;50.908;6.962;2024-01-25T02:52:57;45.78;;;7.70;;
44486;SDS011;30191;50.908;6.962;2024-01-25T02:55:23;42.88;;;7.20;;
44486;SDS011;30191;50.908;6.962;2024-01-25T02:57:49;48.00;;;7.65;;
44486;SDS011;30191;50.908;6.962;2024-01-25T03:00:14;42.92;;;7.78;;
44486;SDS011;30191;50.908;6.962;2024-01-25T03:02:40;44.45;;;7.32;;
44486;SDS011;30191;50.908;6.962;2024-01-25T03:05:06;49.90;;;8.50;;
44486;SDS011;30191;50.908;6.962;2024-01-25T03:07:32;43.67;;;7.88;;
44486;SDS011;30191;50.908;6.962;2024-01-25T03:09:57;45.17;;;8.07;;
44486;SDS011;30191;50.908;6.962;2024-01-25T03:12:23;45.38;;;7.60;;
44486;SDS011;30191;50.908;6.962;2024-01-25T03:14:49;47.47;;;7.90;;
44486;SDS011;30191;50.908;6.962;2024-01-25T03:17:15;50.15;;;7.68;;
44486;SDS011;30191;50.908;6.962;2024-01-25T03:19:41;42.65;;;7.85;;
44486;SDS011;30191;50.908;6.962;2024-01-25T03:22:06;51.20;;;8.25;;
44486;SDS011;30191;50.908;6.962;2024-01-25T03:24:32;44.45;;;8.07;;
44486;SDS011;30191;50.908;6.962;2024-01-25T03:26:57;40.53;;;7.50;;
44486;SDS011;30191;50.908;6.962;2024-01-25T03:29:23;43.53;;;7.53;;
44486;SDS011;30191;50.908;6.962;2024-01-25T03:31:49;49.42;;;8.27;;
44486;SDS011;30191;50.908;6.962;2024-01-25T03:34:15;47.47;;;8.25;;
44486;SDS011;30191;50.908;6.962;2024-01-25T03:36:41;49.65;;;7.80;;
44486;SDS011;30191;50.908;6.962;2024-01-25T03:39:06;47.95;;;8.05;;
44486;SDS011;30191;50.908;6.962;2024-01-25T03:41:32;50.53;;;7.55;;
44486;SDS011;30191;50.908;6.962;2024-01-25T03:43:58;45.90;;;7.80;;
44486;SDS011;30191;50.908;6.962;2024-01-25T03:46:23;50.38;;;8.15;;
44486;SDS011;30191;50.908;6.962;2024-01-25T03:48:49;46.45;;;8.15;;
44486;SDS011;30191;50.908;6.962;2024-01-25T03:51:15;45.65;;;7.85;;
44486;SDS011;30191;50.908;6.962;2024-01-25T03:53:41;42.83;;;8.55;;
44486;SDS011;30191;50.908;6.962;2024-01-25T03:56:14;46.90;;;7.68;;
44486;SDS011;30191;50.908;6.962;2024-01-25T03:58:42;48.05;;;8.07;;
44486;SDS011;30191;50.908;6.962;2024-01-25T04:01:08;52.95;;;8.40;;
44486;SDS011;30191;50.908;6.962;2024-01-25T04:03:34;56.85;;;8.68;;
44486;SDS011;30191;50.908;6.962;2024-01-25T04:06:00;49.65;;;8.07;;
44486;SDS011;30191;50.908;6.962;2024-01-25T04:08:25;55.38;;;8.20;;
44486;SDS011;30191;50.908;6.962;2024-01-25T04:10:51;50.53;;;8.00;;
44486;SDS011;30191;50.908;6.962;2024-01-25T04:13:16;55.25;;;8.60;;
44486;SDS011;30191;50.908;6.962;2024-01-25T04:15:42;44.00;;;6.80;;
44486;SDS011;30191;50.908;6.962;2024-01-25T04:18:08;48.30;;;8.32;;
44486;SDS011;30191;50.908;6.962;2024-01-25T04:20:33;51.08;;;8.35;;
44486;SDS011;30191;50.908;6.962;2024-01-25T04:22:59;45.50;;;7.95;;
44486;SDS011;30191;50.908;6.962;2024-01-25T04:25:25;48.08;;;8.70;;
44486;SDS011;30191;50.908;6.962;2024-01-25T04:27:50;50.70;;;8.27;;
44486;SDS011;30191;50.908;6.962;2024-01-25T04:30:16;52.70;;;8.20;;
44486;SDS011;30191;50.908;6.962;2024-01-25T04:32:42;53.28;;;8.98;;
44486;SDS011;30191;50.908;6.962;2024-01-25T04:35:08;46.65;;;7.80;;
44486;SDS011;30191;50.908;6.962;2024-01-25T04:37:34;61.70;;;9.45;;
44486;SDS011;30191;50.908;6.962;2024-01-25T04:40:00;53.55;;;8.23;;
44486;SDS011;30191;50.908;6.962;2024-01-25T04:42:25;41.92;;;8.07;;
44486;SDS011;30191;50.908;6.962;2024-01-25T04:44:52;47.53;;;8.85;;
44486;SDS011;30191;50.908;6.962;2024-01-25T04:47:18;44.85;;;8.43;;
44486;SDS011;30191;50.908;6.962;2024-01-25T04:49:44;48.53;;;8.65;;
44486;SDS011;30191;50.908;6.962;2024-01-25T04:52:09;51.35;;;8.15;;
44486;SDS011;30191;50.908;6.962;2024-01-25T04:54:35;48.42;;;8.65;;
44486;SDS011;30191;50.908;6.962;2024-01-25T04:57:01;50.10;;;8.45;;
44486;SDS011;30191;50.908;6.962;2024-01-25T04:59:31;41.63;;;7.97;;
44486;SDS011;30191;50.908;6.962;2024-01-25T05:02:00;50.60;;;9.23;;
44486;SDS011;30191;50.908;6.962;2024-01-25T05:04:26;51.67;;;9.40;;
44486;SDS011;30191;50.908;6.962;2024-01-25T05:06:54;46.72;;;8.07;;
44486;SDS011;30191;50.908;6.962;2024-01-25T05:09:20;49.35;;;8.07;;
44486;SDS011;30191;50.908;6.962;2024-01-25T05:11:46;41.45;;;8.02;;
44486;SDS011;30191;50.908;6.962;2024-01-25T05:14:12;42.67;;;8.20;;
44486;SDS011;30191;50.908;6.962;2024-01-25T05:16:38;47.40;;;8.30;;
44486;SDS011;30191;50.908;6.962;2024-01-25T05:19:03;44.58;;;7.57;;
44486;SDS011;30191;50.908;6.962;2024-01-25T05:21:29;48.55;;;8.25;;
44486;SDS011;30191;50.908;6.962;2024-01-25T05:23:55;45.00;;;7.75;;
44486;SDS011;30191;50.908;6.962;2024-01-25T05:26:20;42.22;;;7.88;;
44486;SDS011;30191;50.908;6.962;2024-01-25T05:28:46;48.78;;;7.45;;
44486;SDS011;30191;50.908;6.962;2024-01-25T05:31:11;48.30;;;7.85;;
44486;SDS011;30191;50.908;6.962;2024-01-25T05:33:40;57.55;;;8.90;;
44486;SDS011;30191;50.908;6.962;2024-01-25T05:36:07;49.58;;;7.85;;
44486;SDS011;30191;50.908;6.962;2024-01-25T05:38:33;52.53;;;8.02;;
44486;SDS011;30191;50.908;6.962;2024-01-25T05:40:58;49.65;;;8.02;;
44486;SDS011;30191;50.908;6.962;2024-01-25T05:43:24;41.30;;;7.75;;
44486;SDS011;30191;50.908;6.962;2024-01-25T05:45:50;46.58;;;8.52;;
44486;SDS011;30191;50.908;6.962;2024-01-25T05:48:16;44.08;;;7.78;;
44486;SDS011;30191;50.908;6.962;2024-01-25T05:50:41;44.65;;;7.90;;
44486;SDS011;30191;50.908;6.962;2024-01-25T05:53:07;44.67;;;7.22;;
44486;SDS011;30191;50.908;6.962;2024-01-25T05:55:33;47.65;;;7.95;;
44486;SDS011;30191;50.908;6.962;2024-01-25T05:57:58;42.17;;;7.25;;
44486;SDS011;30191;50.908;6.962;2024-01-25T06:00:24;52.70;;;8.25;;
44486;SDS011;30191;50.908;6.962;2024-01-25T06:02:50;53.00;;;8.55;;
44486;SDS011;30191;50.908;6.962;2024-01-25T06:05:15;47.72;;;7.70;;
44486;SDS011;30191;50.908;6.962;2024-01-25T06:07:41;50.65;;;8.18;;
44486;SDS011;30191;50.908;6.962;2024-01-25T06:10:07;57.63;;;8.70;;
44486;SDS011;30191;50.908;6.962;2024-01-25T06:12:33;44.13;;;7.82;;
44486;SDS011;30191;50.908;6.962;2024-01-25T06:14:59;51.53;;;8.50;;
44486;SDS011;30191;50.908;6.962;2024-01-25T06:17:24;44.33;;;7.10;;
44486;SDS011;30191;50.908;6.962;2024-01-25T06:19:50;46.25;;;8.30;;
44486;SDS011;30191;50.908;6.962;2024-01-25T06:22:16;48.95;;;8.65;;
44486;SDS011;30191;50.908;6.962;2024-01-25T06:24:42;38.78;;;7.60;;
44486;SDS011;30191;50.908;6.962;2024-01-25T06:27:09;41.90;;;8.40;;
44486;SDS011;30191;50.908;6.962;2024-01-25T06:29:35;46.65;;;8.23;;
44486;SDS011;30191;50.908;6.962;2024-01-25T06:32:01;43.65;;;8.27;;
44486;SDS011;30191;50.908;6.962;2024-01-25T06:34:27;46.20;;;8.35;;
44486;SDS011;30191;50.908;6.962;2024-01-25T06:36:53;43.08;;;7.68;;
44486;SDS011;30191;50.908;6.962;2024-01-25T06:39:18;47.13;;;8.35;;
44486;SDS011;30191;50.908;6.962;2024-01-25T06:41:44;56.67;;;8.82;;
44486;SDS011;30191;50.908;6.962;2024-01-25T06:44:10;49.35;;;8.15;;
44486;SDS011;30191;50.908;6.962;2024-01-25T06:46:35;40.42;;;8.10;;
44486;SDS011;30191;50.908;6.962;2024-01-25T06:49:01;48.08;;;8.43;;
44486;SDS011;30191;50.908;6.962;2024-01-25T06:51:27;45.67;;;7.60;;
44486;SDS011;30191;50.908;6.962;2024-01-25T06:53:53;46.63;;;7.07;;
44486;SDS011;30191;50.908;6.962;2024-01-25T06:56:19;41.05;;;7.53;;
44486;SDS011;30191;50.908;6.962;2024-01-25T06:58:44;43.03;;;8.10;;
44486;SDS011;30191;50.908;6.962;2024-01-25T07:01:10;42.88;;;7.30;;
44486;SDS011;30191;50.908;6.962;2024-01-25T07:03:36;38.03;;;8.15;;
44486;SDS011;30191;50.908;6.962;2024-01-25T07:06:03;45.67;;;7.97;;
44486;SDS011;30191;50.908;6.962;2024-01-25T07:08:29;45.38;;;7.68;;
44486;SDS011;30191;50.908;6.962;2024-01-25T07:10:55;40.33;;;7.68;;
44486;SDS011;30191;50.908;6.962;2024-01-25T07:13:21;42.63;;;7.97;;
44486;SDS011;30191;50.908;6.962;2024-01-25T07:15:47;47.80;;;8.10;;
44486;SDS011;30191;50.908;6.962;2024-01-25T07:18:12;45.75;;;8.25;;
44486;SDS011;30191;50.908;6.962;2024-01-25T07:20:38;37.10;;;7.20;;
44486;SDS011;30191;50.908;6.962;2024-01-25T07:23:04;43.10;;;7.70;;
44486;SDS011;30191;50.908;6.962;2024-01-25T07:25:29;44.58;;;8.07;;
44486;SDS011;30191;50.908;6.962;2024-01-25T07:27:55;35.83;;;7.20;;
44486;SDS011;30191;50.908;6.962;2024-01-25T07:30:20;43.47;;;7.82;;
44486;SDS011;30191;50.908;6.962;2024-01-25T07:32:46;48.45;;;8.77;;
44486;SDS011;30191;50.908;6.962;2024-01-25T07:35:14;40.22;;;7.32;;
44486;SDS011;30191;50.908;6.962;2024-01-25T07:37:40;44.78;;;7.95;;
44486;SDS011;30191;50.908;6.962;2024-01-25T07:40:06;45.08;;;7.68;;
44486;SDS011;30191;50.908;6.962;2024-01-25T07:42:33;38.92;;;7.50;;
44486;SDS011;30191;50.908;6.962;2024-01-25T07:44:58;43.38;;;7.32;;
44486;SDS011;30191;50.908;6.962;2024-01-25T07:47:24;41.92;;;7.85;;
44486;SDS011;30191;50.908;6.962;2024-01-25T07:49:50;40.47;;;7.47;;
44486;SDS011;30191;50.908;6.962;2024-01-25T07:52:15;46.85;;;8.40;;
44486;SDS011;30191;50.908;6.962;2024-01-25T07:54:41;46.50;;;8.98;;
44486;SDS011;30191;50.908;6.962;2024-01-25T07:57:06;40.15;;;7.90;;
44486;SDS011;30191;50.908;6.962;2024-01-25T07:59:32;44.53;;;8.48;;
44486;SDS011;30191;50.908;6.962;2024-01-25T08:01:58;43.80;;;8.15;;
44486;SDS011;30191;50.908;6.962;2024-01-25T08:04:24;43.70;;;8.05;;
44486;SDS011;30191;50.908;6.962;2024-01-25T08:06:49;46.50;;;8.85;;
44486;SDS011;30191;50.908;6.962;2024-01-25T08:09:16;40.35;;;8.27;;
44486;SDS011;30191;50.908;6.962;2024-01-25T08:11:42;38.97;;;8.73;;
44486;SDS011;30191;50.908;6.962;2024-01-25T08:14:07;48.80;;;8.95;;
44486;SDS011;30191;50.908;6.962;2024-01-25T08:16:33;48.47;;;9.32;;
44486;SDS011;30191;50.908;6.962;2024-01-25T08:19:00;40.90;;;9.23;;
44486;SDS011;30191;50.908;6.962;2024-01-25T08:21:26;49.17;;;9.13;;
44486;SDS011;30191;50.908;6.962;2024-01-25T08:23:51;49.50;;;9.73;;
44486;SDS011;30191;50.908;6.962;2024-01-25T08:26:17;51.10;;;8.98;;
44486;SDS011;30191;50.908;6.962;2024-01-25T08:28:42;52.50;;;10.50;;
44486;SDS011;30191;50.908;6.962;2024-01-25T08:31:09;48.03;;;9.35;;
44486;SDS011;30191;50.908;6.962;2024-01-25T08:33:35;46.40;;;10.38;;
44486;SDS011;30191;50.908;6.962;2024-01-25T08:36:01;48.17;;;9.48;;
44486;SDS011;30191;50.908;6.962;2024-01-25T08:38:27;45.95;;;9.73;;
44486;SDS011;30191;50.908;6.962;2024-01-25T08:40:52;43.22;;;9.68;;
44486;SDS011;30191;50.908;6.962;2024-01-25T08:43:18;50.00;;;11.15;;
44486;SDS011;30191;50.908;6.962;2024-01-25T08:45:44;46.70;;;9.82;;
44486;SDS011;30191;50.908;6.962;2024-01-25T08:48:09;43.03;;;9.57;;
44486;SDS011;30191;50.908;6.962;2024-01-25T08:50:35;44.00;;;10.10;;
44486;SDS011;30191;50.908;6.962;2024-01-25T08:53:01;47.65;;;10.48;;
44486;SDS011;30191;50.908;6.962;2024-01-25T08:55:27;46.47;;;10.55;;
44486;SDS011;30191;50.908;6.962;2024-01-25T08:57:53;50.13;;;10.48;;
44486;SDS011;30191;50.908;6.962;2024-01-25T09:00:19;45.65;;;10.88;;
44486;SDS011;30191;50.908;6.962;2024-01-25T09:02:45;42.53;;;10.80;;
44486;SDS011;30191;50.908;6.962;2024-01-25T09:05:10;42.33;;;11.00;;
44486;SDS011;30191;50.908;6.962;2024-01-25T09:07:37;39.95;;;10.65;;
44486;SDS011;30191;50.908;6.962;2024-01-25T09:10:03;46.72;;;10.55;;
44486;SDS011;30191;50.908;6.962;2024-01-25T09:12:29;52.17;;;11.05;;
44486;SDS011;30191;50.908;6.962;2024-01-25T09:14:55;47.72;;;11.07;;
44486;SDS011;30191;50.908;6.962;2024-01-25T09:17:21;46.03;;;11.70;;
44486;SDS011;30191;50.908;6.962;2024-01-25T09:19:47;46.58;;;10.88;;
44486;SDS011;30191;50.908;6.962;2024-01-25T09:22:16;43.67;;;10.57;;
44486;SDS011;30191;50.908;6.962;2024-01-25T09:24:44;43.72;;;11.23;;
44486;SDS011;30191;50.908;6.962;2024-01-25T09:27:12;40.63;;;9.95;;
44486;SDS011;30191;50.908;6.962;2024-01-25T09:29:39;48.72;;;10.75;;
44486;SDS011;30191;50.908;6.962;2024-01-25T09:32:06;40.80;;;10.13;;
44486;SDS011;30191;50.908;6.962;2024-01-25T09:34:32;44.50;;;10.27;;
44486;SDS011;30191;50.908;6.962;2024-01-25T09:36:58;47.08;;;10.88;;
44486;SDS011;30191;50.908;6.962;2024-01-25T09:39:23;43.53;;;11.07;;
44486;SDS011;30191;50.908;6.962;2024-01-25T09:41:49;52.42;;;10.80;;
44486;SDS011;30191;50.908;6.962;2024-01-25T09:44:14;46.40;;;11.00;;
44486;SDS011;30191;50.908;6.962;2024-01-25T09:46:42;37.17;;;10.40;;
44486;SDS011;30191;50.908;6.962;2024-01-25T09:49:10;43.00;;;10.15;;
44486;SDS011;30191;50.908;6.962;2024-01-25T09:51:37;46.63;;;11.90;;
44486;SDS011;30191;50.908;6.962;2024-01-25T09:54:07;49.03;;;11.43;;
44486;SDS011;30191;50.908;6.962;2024-01-25T09:56:33;43.70;;;10.82;;
44486;SDS011;30191;50.908;6.962;2024-01-25T09:58:59;50.35;;;12.35;;
44486;SDS011;30191;50.908;6.962;2024-01-25T10:01:25;46.65;;;11.68;;
44486;SDS011;30191;50.908;6.962;2024-01-25T10:03:52;42.08;;;10.80;;
44486;SDS011;30191;50.908;6.962;2024-01-25T10:06:18;42.03;;;11.10;;
44486;SDS011;30191;50.908;6.962;2024-01-25T10:08:44;43.22;;;11.02;;
44486;SDS011;30191;50.908;6.962;2024-01-25T10:11:10;45.38;;;10.77;;
44486;SDS011;30191;50.908;6.962;2024-01-25T10:13:48;45.05;;;11.38;;
44486;SDS011;30191;50.908;6.962;2024-01-25T10:16:19;45.03;;;10.93;;
44486;SDS011;30191;50.908;6.962;2024-01-25T10:18:48;44.83;;;11.32;;
44486;SDS011;30191;50.908;6.962;2024-01-25T10:21:14;45.70;;;11.52;;
44486;SDS011;30191;50.908;6.962;2024-01-25T10:23:40;46.70;;;10.70;;
44486;SDS011;30191;50.908;6.962;2024-01-25T10:26:08;44.38;;;11.45;;
44486;SDS011;30191;50.908;6.962;2024-01-25T10:28:34;46.45;;;11.90;;
44486;SDS011;30191;50.908;6.962;2024-01-25T10:31:00;44.75;;;10.27;;
44486;SDS011;30191;50.908;6.962;2024-01-25T10:33:29;50.38;;;11.55;;
44486;SDS011;30191;50.908;6.962;2024-01-25T10:35:55;44.80;;;11.65;;
44486;SDS011;30191;50.908;6.962;2024-01-25T10:40:55;55.40;;;11.00;;
44486;SDS011;30191;50.908;6.962;2024-01-25T10:43:22;40.05;;;10.05;;
44486;SDS011;30191;50.908;6.962;2024-01-25T10:45:47;45.25;;;11.48;;
44486;SDS011;30191;50.908;6.962;2024-01-25T10:48:13;48.47;;;11.15;;
44486;SDS011;30191;50.908;6.962;2024-01-25T10:50:39;41.58;;;10.88;;
44486;SDS011;30191;50.908;6.962;2024-01-25T10:53:05;47.45;;;11.20;;
44486;SDS011;30191;50.908;6.962;2024-01-25T10:55:33;41.63;;;10.32;;
44486;SDS011;30191;50.908;6.962;2024-01-25T10:57:59;39.67;;;10.15;;
44486;SDS011;30191;50.908;6.962;2024-01-25T11:00:24;42.58;;;11.23;;
44486;SDS011;30191;50.908;6.962;2024-01-25T11:02:50;44.75;;;10.88;;
44486;SDS011;30191;50.908;6.962;2024-01-25T11:05:16;40.28;;;9.73;;
44486;SDS011;30191;50.908;6.962;2024-01-25T11:07:50;45.25;;;10.40;;
44486;SDS011;30191;50.908;6.962;2024-01-25T11:10:17;36.78;;;9.90;;
44486;SDS011;30191;50.908;6.962;2024-01-25T11:15:35;36.53;;;9.88;;
44486;SDS011;30191;50.908;6.962;2024-01-25T11:18:02;41.53;;;10.13;;
44486;SDS011;30191;50.908;6.962;2024-01-25T11:20:31;43.55;;;9.77;;
44486;SDS011;30191;50.908;6.962;2024-01-25T11:23:01;42.60;;;9.43;;
44486;SDS011;30191;50.908;6.962;2024-01-25T11:25:28;47.85;;;10.10;;
44486;SDS011;30191;50.908;6.962;2024-01-25T11:27:55;35.00;;;9.02;;
44486;SDS011;30191;50.908;6.962;2024-01-25T11:30:21;36.53;;;8.93;;
44486;SDS011;30191;50.908;6.962;2024-01-25T11:32:47;39.17;;;9.43;;
44486;SDS011;30191;50.908;6.962;2024-01-25T11:35:13;38.95;;;9.40;;
44486;SDS011;30191;50.908;6.962;2024-01-25T11:37:42;37.28;;;9.82;;
44486;SDS011;30191;50.908;6.962;2024-01-25T11:40:12;35.47;;;8.07;;
44486;SDS011;30191;50.908;6.962;2024-01-25T11:42:41;36.47;;;7.95;;
44486;SDS011;30191;50.908;6.962;2024-01-25T11:45:09;37.00;;;8.43;;
44486;SDS011;30191;50.908;6.962;2024-01-25T11:47:36;39.25;;;8.20;;
44486;SDS011;30191;50.908;6.962;2024-01-25T11:50:05;40.67;;;9.43;;
44486;SDS011;30191;50.908;6.962;2024-01-25T11:52:32;40.35;;;7.88;;
44486;SDS011;30191;50.908;6.962;2024-01-25T11:55:05;43.50;;;8.48;;
44486;SDS011;30191;50.908;6.962;2024-01-25T11:57:32;41.50;;;8.45;;
44486;SDS011;30191;50.908;6.962;2024-01-25T12:00:06;36.85;;;7.95;;
44486;SDS011;30191;50.908;6.962;2024-01-25T12:02:35;40.33;;;8.02;;
44486;SDS011;30191;50.908;6.962;2024-01-25T12:05:02;39.25;;;7.63;;
44486;SDS011;30191;50.908;6.962;2024-01-25T12:07:29;33.47;;;7.65;;
44486;SDS011;30191;50.908;6.962;2024-01-25T12:10:06;31.98;;;7.07;;
44486;SDS011;30191;50.908;6.962;2024-01-25T12:12:35;33.70;;;7.22;;
44486;SDS011;30191;50.908;6.962;2024-01-25T12:15:03;37.95;;;7.97;;
44486;SDS011;30191;50.908;6.962;2024-01-25T12:17:30;33.55;;;7.63;;
44486;SDS011;30191;50.908;6.962;2024-01-25T12:19:59;32.63;;;7.35;;
44486;SDS011;30191;50.908;6.962;2024-01-25T12:22:28;35.10;;;7.68;;
44486;SDS011;30191;50.908;6.962;2024-01-25T12:24:58;34.25;;;6.22;;
44486;SDS011;30191;50.908;6.962;2024-01-25T12:27:25;37.63;;;6.80;;
44486;SDS011;30191;50.908;6.962;2024-01-25T12:29:51;40.53;;;7.32;;
44486;SDS011;30191;50.908;6.962;2024-01-25T12:32:21;39.45;;;7.80;;
44486;SDS011;30191;50.908;6.962;2024-01-25T12:34:56;33.75;;;6.63;;
44486;SDS011;30191;50.908;6.962;2024-01-25T12:37:23;33.35;;;6.90;;
44486;SDS011;30191;50.908;6.962;2024-01-25T12:39:53;33.38;;;6.30;;
44486;SDS011;30191;50.908;6.962;2024-01-25T12:42:19;29.83;;;6.10;;
44486;SDS011;30191;50.908;6.962;2024-01-25T12:44:46;26.08;;;6.20;;
44486;SDS011;30191;50.908;6.962;2024-01-25T12:47:12;36.20;;;6.72;;
44486;SDS011;30191;50.908;6.962;2024-01-25T12:49:41;29.63;;;6.20;;
44486;SDS011;30191;50.908;6.962;2024-01-25T12:52:11;26.63;;;6.03;;
44486;SDS011;30191;50.908;6.962;2024-01-25T12:54:38;30.30;;;6.27;;
44486;SDS011;30191;50.908;6.962;2024-01-25T12:57:04;29.67;;;6.25;;
44486;SDS011;30191;50.908;6.962;2024-01-25T12:59:30;33.83;;;5.93;;
44486;SDS011;30191;50.908;6.962;2024-01-25T13:01:59;28.20;;;6.00;;
44486;SDS011;30191;50.908;6.962;2024-01-25T13:04:25;31.08;;;5.68;;
44486;SDS011;30191;50.908;6.962;2024-01-25T13:06:52;23.02;;;5.03;;
44486;SDS011;30191;50.908;6.962;2024-01-25T13:09:19;31.92;;;6.15;;
44486;SDS011;30191;50.908;6.962;2024-01-25T13:11:46;33.67;;;5.45;;
44486;SDS011;30191;50.908;6.962;2024-01-25T13:14:12;28.92;;;5.97;;
44486;SDS011;30191;50.908;6.962;2024-01-25T13:16:37;33.13;;;6.13;;
44486;SDS011;30191;50.908;6.962;2024-01-25T13:19:03;35.55;;;6.45;;
44486;SDS011;30191;50.908;6.962;2024-01-25T13:21:28;28.83;;;5.47;;
44486;SDS011;30191;50.908;6.962;2024-01-25T13:23:54;26.73;;;4.88;;
44486;SDS011;30191;50.908;6.962;2024-01-25T13:26:20;26.50;;;5.75;;
44486;SDS011;30191;50.908;6.962;2024-01-25T13:28:45;23.27;;;4.88;;
44486;SDS011;30191;50.908;6.962;2024-01-25T13:31:12;28.20;;;5.40;;
44486;SDS011;30191;50.908;6.962;2024-01-25T13:33:38;28.38;;;5.70;;
44486;SDS011;30191;50.908;6.962;2024-01-25T13:36:04;28.25;;;5.25;;
44486;SDS011;30191;50.908;6.962;2024-01-25T13:38:33;25.52;;;5.10;;
44486;SDS011;30191;50.908;6.962;2024-01-25T13:40:59;28.02;;;5.15;;
44486;SDS011;30191;50.908;6.962;2024-01-25T13:43:26;28.63;;;5.63;;
44486;SDS011;30191;50.908;6.962;2024-01-25T13:45:52;24.70;;;5.28;;
44486;SDS011;30191;50.908;6.962;2024-01-25T13:48:19;24.45;;;4.80;;
44486;SDS011;30191;50.908;6.962;2024-01-25T13:50:44;29.63;;;5.10;;
44486;SDS011;30191;50.908;6.962;2024-01-25T13:53:10;25.63;;;4.82;;
44486;SDS011;30191;50.908;6.962;2024-01-25T13:55:35;27.13;;;5.60;;
44486;SDS011;30191;50.908;6.962;2024-01-25T13:58:01;29.00;;;5.45;;
44486;SDS011;30191;50.908;6.962;2024-01-25T14:00:27;27.05;;;5.25;;
44486;SDS011;30191;50.908;6.962;2024-01-25T14:02:53;29.65;;;5.75;;
44486;SDS011;30191;50.908;6.962;2024-01-25T14:05:19;26.08;;;4.95;;
44486;SDS011;30191;50.908;6.962;2024-01-25T14:07:44;24.88;;;4.97;;
44486;SDS011;30191;50.908;6.962;2024-01-25T14:10:10;28.13;;;5.20;;
44486;SDS011;30191;50.908;6.962;2024-01-25T14:12:36;23.00;;;4.57;;
44486;SDS011;30191;50.908;6.962;2024-01-25T14:15:01;27.63;;;5.57;;
44486;SDS011;30191;50.908;6.962;2024-01-25T14:17:27;28.55;;;5.20;;
44486;SDS011;30191;50.908;6.962;2024-01-25T14:19:53;26.33;;;5.45;;
44486;SDS011;30191;50.908;6.962;2024-01-25T14:22:19;27.45;;;5.53;;
44486;SDS011;30191;50.908;6.962;2024-01-25T14:24:44;28.60;;;5.20;;
44486;SDS011;30191;50.908;6.962;2024-01-25T14:27:11;23.77;;;4.85;;
44486;SDS011;30191;50.908;6.962;2024-01-25T14:29:36;26.00;;;5.03;;
44486;SDS011;30191;50.908;6.962;2024-01-25T14:32:02;22.10;;;4.68;;